KWVI/WVI METAR and TAF weather

Enter ICAO airport designator
Station Type Date Time Source
KWVI METAR 2021/03/01 08:53 UTC NOAA

KWVI 010853Z AUTO 00000KT 10SM CLR 06/M02 A3020 RMK AO2 SLP225 T00611022 51002


Station Type Date Time Source
KWVI Decoded METAR 2021/03/01 08:53 UTC NOAA

WATSONVILLE MUNICIPAL AIRPORT , CA, United States (KWVI) 36-56N 121-47W 43M
Mar 01, 2021 - 03:53 AM EST / 2021.03.01 0853 UTC
Wind: Calm:0
Visibility: 10 mile(s):0
Sky conditions: clear
Temperature: 43.0 F (6.1 C)
Dew Point: 28.0 F (-2.2 C)
Relative Humidity: 55%
Pressure (altimeter): 30.2 in. Hg (1022 hPa)
Pressure tendency: 0.01 inches (0.2 hPa) higher than three hours ago
ob: KWVI 010853Z AUTO 00000KT 10SM CLR 06/M02 A3020 RMK AO2 SLP225 T00611022 51002
cycle: 9

Station Type Date Time Source
KWVI TAF UTC NOAA

Error!

Example: see airport list